| time (UTC) | temp C | wind direction | speed KPH | gust KPH | rain 1hr cm | rain 24hr cm | rain mn cm | humidity % | barometer mb |
| 20260506220023 | 12 | 44 | 1.6 | 8.0 | 0.00 | 0.00 | 0.00 | 76 | 999.2 |
| 20260506214514 | 12 | 78 | 3.2 | 6.4 | 0.00 | 0.00 | 0.00 | 76 | 999.2 |
| 20260506213013 | 12 | 43 | 0.0 | 8.0 | 0.00 | 0.00 | 0.00 | 76 | 999.1 |
| 20260506211513 | 12 | 32 | 1.6 | 4.8 | 0.00 | 0.00 | 0.00 | 76 | 999.0 |
| 20260506210012 | 12 | 33 | 0.0 | 3.2 | 0.00 | 0.00 | 0.00 | 76 | 999.1 |
| 20260506204512 | 11 | 5 | 1.6 | 8.0 | 0.00 | 0.00 | 0.00 | 76 | 999.0 |
| 20260506203022 | 12 | 24 | 1.6 | 8.0 | 0.00 | 0.00 | 0.00 | 76 | 998.9 |
| 20260506201511 | 11 | 5 | 3.2 | 4.8 | 0.00 | 0.00 | 0.00 | 76 | 998.8 |
| 20260506200010 | 11 | 58 | 1.6 | 4.8 | 0.00 | 0.00 | 0.00 | 76 | 998.5 |
| 20260506194511 | 11 | 84 | 1.6 | 6.4 | 0.00 | 0.00 | 0.00 | 76 | 998.4 |
| 20260506193009 | 11 | 38 | 3.2 | 9.7 | 0.00 | 0.00 | 0.00 | 76 | 998.1 |
| 20260506191508 | 11 | 355 | 3.2 | 8.0 | 0.00 | 0.00 | 0.00 | 76 | 997.9 |
| 20260506190007 | 12 | 34 | 0.0 | 3.2 | 0.00 | 0.00 | 0.00 | 76 | 997.8 |
| 20260506184505 | 12 | 339 | 0.0 | 3.2 | 0.00 | 0.00 | 0.00 | 76 | 997.5 |
| 20260506183005 | 12 | 79 | 0.0 | 6.4 | 0.00 | 0.00 | 0.00 | 76 | 996.8 |
| 20260506181505 | 12 | 73 | 1.6 | 12.9 | 0.00 | 0.00 | 0.00 | 76 | 996.2 |
| 20260506180006 | 13 | 55 | 3.2 | 11.3 | 0.00 | 0.00 | 0.00 | 76 | 996.0 |
| 20260506174502 | 13 | 96 | 6.4 | 11.3 | 0.00 | 0.00 | 0.00 | 76 | 996.2 |
| 20260506173002 | 13 | 39 | 0.0 | 3.2 | 0.00 | 0.00 | 0.00 | 76 | 996.9 |
| 20260506171503 | 14 | 39 | 0.0 | 3.2 | 0.00 | 0.00 | 0.00 | 76 | 996.8 |
| 20260506170100 | 14 | 44 | 1.6 | 4.8 | 0.00 | 0.00 | 0.00 | 76 | 996.2 |
| 20260506164600 | 15 | 76 | 0.0 | 3.2 | 0.00 | 0.00 | 0.00 | 76 | 995.9 |
| 20260506163059 | 15 | 76 | 0.0 | 9.7 | 0.00 | 0.00 | 0.00 | 76 | 995.8 |
| 20260506161606 | 15 | 41 | 3.2 | 9.7 | 0.00 | 0.00 | 0.00 | 76 | 995.6 |
| 20260506160058 | 15 | 31 | 3.2 | 14.5 | 0.00 | 0.00 | 0.00 | 76 | 995.3 |
| 20260506154557 | 15 | 355 | 6.4 | 19.3 | 0.00 | 0.00 | 0.00 | 75 | 994.7 |
| 20260506153054 | 16 | 360 | 3.2 | 16.1 | 0.00 | 0.00 | 0.00 | 75 | 995.0 |
| 20260506151605 | 16 | 57 | 8.0 | 19.3 | 0.00 | 0.00 | 0.00 | 74 | 995.1 |
| 20260506150053 | 16 | 22 | 6.4 | 17.7 | 0.00 | 0.00 | 0.00 | 73 | 995.1 |
| 20260506144557 | 16 | 65 | 6.4 | 19.3 | 0.00 | 0.00 | 0.00 | 74 | 995.4 |
| 20260506143056 | 16 | 27 | 9.7 | 24.1 | 0.00 | 0.00 | 0.00 | 74 | 995.5 |
| 20260506141551 | 16 | 68 | 8.0 | 17.7 | 0.00 | 0.00 | 0.00 | 74 | 995.6 |
| 20260506134550 | 17 | 57 | 11.3 | 19.3 | 0.00 | 0.00 | 0.00 | 72 | 995.6 |
| 20260506133051 | 17 | 5 | 6.4 | 17.7 | 0.00 | 0.00 | 0.00 | 74 | 995.6 |
| 20260506131552 | 16 | 30 | 6.4 | 17.7 | 0.00 | 0.00 | 0.00 | 75 | 995.6 |
| 20260506130058 | 16 | 17 | 6.4 | 14.5 | 0.00 | 0.00 | 0.00 | 76 | 995.8 |
| 20260506124545 | 15 | 360 | 4.8 | 12.9 | 0.00 | 0.00 | 0.00 | 76 | 995.9 |
| 20260506123045 | 15 | 298 | 4.8 | 14.5 | 0.00 | 0.00 | 0.00 | 76 | 995.6 |
| 20260506121544 | 17 | 255 | 4.8 | 16.1 | 0.00 | 0.00 | 0.00 | 75 | 995.6 |
| 20260506120043 | 17 | 69 | 3.2 | 9.7 | 0.00 | 0.00 | 0.00 | 75 | 995.4 |
| 20260506114545 | 17 | 248 | 4.8 | 14.5 | 0.00 | 0.00 | 0.00 | 74 | 995.4 |
| 20260506113041 | 18 | 205 | 6.4 | 14.5 | 0.00 | 0.00 | 0.00 | 75 | 995.3 |
| 20260506111539 | 16 | 198 | 4.8 | 16.1 | 0.00 | 0.00 | 0.00 | 76 | 995.5 |
| 20260506110039 | 16 | 50 | 4.8 | 11.3 | 0.00 | 0.00 | 0.00 | 76 | 995.5 |
| 20260506104534 | 16 | 224 | 0.0 | 12.9 | 0.00 | 0.00 | 0.00 | 76 | 995.9 |
| 20260506103034 | 16 | 125 | 4.8 | 17.7 | 0.00 | 0.00 | 0.00 | 76 | 995.9 |
| 20260506101546 | 15 | 98 | 3.2 | 9.7 | 0.00 | 0.00 | 0.00 | 76 | 996.0 |
| 20260506100028 | 15 | 54 | 1.6 | 12.9 | 0.00 | 0.00 | 0.00 | 76 | 996.1 |
| 20260506094528 | 15 | 101 | 8.0 | 16.1 | 0.00 | 0.00 | 0.00 | 76 | 995.9 |
| 20260506093025 | 15 | 82 | 3.2 | 16.1 | 0.00 | 0.00 | 0.00 | 76 | 995.9 |
| 20260506091524 | 14 | 88 | 6.4 | 16.1 | 0.00 | 0.00 | 0.00 | 76 | 995.7 |
| 20260506090020 | 13 | 81 | 6.4 | 16.1 | 0.00 | 0.00 | 0.00 | 76 | 995.9 |
| 20260506084519 | 13 | 63 | 6.4 | 17.7 | 0.00 | 0.00 | 0.00 | 76 | 995.9 |
| 20260506083013 | 13 | 78 | 4.8 | 16.1 | 0.00 | 0.00 | 0.00 | 76 | 995.9 |
| 20260506081512 | 13 | 86 | 8.0 | 14.5 | 0.00 | 0.00 | 0.00 | 76 | 996.0 |
| 20260506073005 | 13 | 78 | 6.4 | 17.7 | 0.00 | 0.00 | 0.00 | 76 | 996.3 |
| 20260506071502 | 13 | 272 | 0.0 | 3.2 | 0.00 | 0.00 | 0.00 | 76 | 996.4 |
| 20260506070104 | 13 | 78 | 3.2 | 11.3 | 0.00 | 0.00 | 0.00 | 76 | 996.4 |
| 20260506061557 | 13 | 65 | 0.0 | 6.4 | 0.00 | 0.00 | 0.00 | 76 | 996.8 |
| 20260506044544 | 12 | 74 | 0.0 | 4.8 | 0.00 | 0.00 | 0.00 | 76 | 997.1 |
| 20260506043043 | 12 | 209 | 0.0 | 6.4 | 0.00 | 0.00 | 0.00 | 76 | 997.3 |
| 20260506041555 | 12 | 74 | 1.6 | 9.7 | 0.00 | 0.00 | 0.00 | 76 | 997.5 |
| 20260506040038 | 12 | 104 | 0.0 | 1.6 | 0.00 | 0.00 | 0.00 | 76 | 997.6 |
| 20260506034536 | 12 | 104 | 0.0 | 12.9 | 0.00 | 0.00 | 0.00 | 76 | 997.6 |
| 20260506033034 | 12 | 50 | 0.0 | 3.2 | 0.00 | 0.00 | 0.00 | 76 | 997.6 |
| 20260506031534 | 12 | 50 | 0.0 | 4.8 | 0.00 | 0.00 | 0.00 | 76 | 997.7 |
| 20260506030035 | 12 | 31 | 1.6 | 6.4 | 0.00 | 0.00 | 0.00 | 76 | 997.7 |
| 20260506024532 | 12 | 48 | 1.6 | 4.8 | 0.00 | 0.00 | 0.00 | 76 | 998.1 |
| 20260506023026 | 12 | 61 | 0.0 | 3.2 | 0.00 | 0.00 | 0.00 | 76 | 998.6 |
| 20260506021526 | 12 | 37 | 0.0 | 3.2 | 0.00 | 0.00 | 0.00 | 76 | 998.8 |
| 20260506020026 | 12 | 37 | 0.0 | 0.0 | 0.00 | 0.00 | 0.00 | 76 | 998.7 |
| 20260506014532 | 12 | 37 | 0.0 | 3.2 | 0.00 | 0.00 | 0.00 | 76 | 998.8 |
| 20260506013028 | 12 | 37 | 0.0 | 1.6 | 0.00 | 0.00 | 0.00 | 76 | 998.8 |
| 20260506011523 | 12 | 37 | 0.0 | 0.0 | 0.00 | 0.00 | 0.00 | 76 | 998.8 |
| 20260506010025 | 12 | 30 | 0.0 | 0.0 | 0.00 | 0.00 | 0.00 | 76 | 999.2 |
| 20260506004528 | 12 | 30 | 0.0 | 0.0 | 0.00 | 0.00 | 0.00 | 76 | 999.3 |
| 20260506003016 | 12 | 30 | 0.0 | 3.2 | 0.00 | 0.00 | 0.00 | 76 | 999.6 |
| 20260506001516 | 12 | 30 | 0.0 | 3.2 | 0.00 | 0.00 | 0.00 | 76 | 999.7 |
| 20260506000019 | 12 | 30 | 0.0 | 4.8 | 0.00 | 0.00 | 0.00 | 76 | 999.6 |
| 20260505234517 | 12 | 31 | 0.0 | 3.2 | 0.00 | 0.00 | 0.00 | 76 | 999.8 |
| 20260505233011 | 12 | 27 | 0.0 | 4.8 | 0.00 | 0.00 | 0.00 | 76 | 1000.1 |
| 20260505231510 | 12 | 34 | 0.0 | 3.2 | 0.00 | 0.00 | 0.00 | 76 | 1000.3 |
| 20260505230014 | 12 | 34 | 0.0 | 4.8 | 0.00 | 0.00 | 0.00 | 76 | 1000.1 |
| 20260505224507 | 12 | 34 | 0.0 | 3.2 | 0.00 | 0.00 | 0.00 | 76 | 1000.4 |